createdAt,value
2019-03-19T00:00:26.164Z,12.10
2019-03-19T00:04:29.527Z,6.57
2019-03-19T00:08:32.840Z,9.40
2019-03-19T00:12:36.884Z,8.47
2019-03-19T00:16:40.730Z,9.00
2019-03-19T00:20:44.077Z,14.57
2019-03-19T00:24:48.203Z,12.03
2019-03-19T00:28:52.045Z,16.93
2019-03-19T00:32:55.838Z,4.63
2019-03-19T00:36:59.500Z,16.80
2019-03-19T00:41:02.931Z,14.03
2019-03-19T00:45:06.600Z,12.87
2019-03-19T00:49:09.974Z,11.83
2019-03-19T00:53:13.322Z,8.50
2019-03-19T00:57:16.731Z,22.83
2019-03-19T01:01:20.180Z,10.03
2019-03-19T01:05:23.552Z,23.67
2019-03-19T01:09:26.897Z,12.43
2019-03-19T01:13:30.357Z,8.47
2019-03-19T01:17:33.683Z,10.20
2019-03-19T01:21:37.580Z,7.60
2019-03-19T01:25:54.468Z,11.33
2019-03-19T01:29:46.018Z,11.80
2019-03-19T01:33:49.436Z,14.97
2019-03-19T01:37:52.792Z,19.93
2019-03-19T01:41:56.749Z,9.20
2019-03-19T01:46:00.103Z,9.60
2019-03-19T01:50:03.745Z,12.10
2019-03-19T01:54:07.565Z,8.53
2019-03-19T01:58:11.059Z,12.50
2019-03-19T02:02:14.438Z,11.20
2019-03-19T02:06:18.319Z,18.93
2019-03-19T02:10:21.665Z,9.77
2019-03-19T02:14:24.979Z,10.27
2019-03-19T02:18:28.356Z,11.10
2019-03-19T02:22:31.737Z,15.67
2019-03-19T02:26:35.127Z,14.90
2019-03-19T02:30:39.010Z,20.43
2019-03-19T02:34:42.810Z,3.90
2019-03-19T02:38:46.162Z,7.70
2019-03-19T02:42:49.968Z,21.77
2019-03-19T02:46:53.434Z,14.10
2019-03-19T02:50:56.760Z,21.30
2019-03-19T02:55:00.417Z,10.20
2019-03-19T02:59:03.895Z,13.53
2019-03-19T03:03:07.710Z,18.10
2019-03-19T03:07:11.169Z,14.80
2019-03-19T03:11:14.855Z,18.73
2019-03-19T03:15:18.147Z,8.93
2019-03-19T03:19:21.895Z,13.37
2019-03-19T03:23:25.611Z,21.63
2019-03-19T03:27:28.920Z,16.10
2019-03-19T03:31:32.211Z,24.50
2019-03-19T03:35:35.512Z,19.67
2019-03-19T03:39:39.164Z,10.27
2019-03-19T03:43:42.824Z,20.90
2019-03-19T03:47:46.491Z,22.83
2019-03-19T03:51:49.790Z,17.20
2019-03-19T03:55:53.354Z,14.93
2019-03-19T03:59:57.420Z,11.13
2019-03-19T04:04:01.475Z,13.80
2019-03-19T04:08:05.484Z,13.30
2019-03-19T04:12:08.771Z,11.60
2019-03-19T04:16:12.343Z,9.60
2019-03-19T04:20:15.814Z,20.50
2019-03-19T04:24:19.396Z,13.93
2019-03-19T04:28:23.269Z,15.40
2019-03-19T04:32:26.555Z,12.00
2019-03-19T04:36:30.270Z,10.10
2019-03-19T04:40:33.564Z,10.60
2019-03-19T04:44:36.907Z,13.17
2019-03-19T04:48:40.599Z,15.80
2019-03-19T04:52:44.050Z,9.70
2019-03-19T04:56:47.783Z,14.33
2019-03-19T05:00:51.078Z,10.00
2019-03-19T05:04:54.393Z,10.67
2019-03-19T05:08:57.687Z,13.27
2019-03-19T05:13:00.988Z,9.30
2019-03-19T05:17:04.770Z,16.90
2019-03-19T05:21:08.062Z,7.00
2019-03-19T05:25:11.427Z,10.03
2019-03-19T05:29:15.167Z,11.73
2019-03-19T05:33:19.558Z,16.93
2019-03-19T05:37:23.467Z,23.47
2019-03-19T05:41:26.766Z,19.70
2019-03-19T05:45:30.503Z,16.80
2019-03-19T05:49:33.778Z,22.70
2019-03-19T05:53:37.070Z,16.63
2019-03-19T05:57:48.925Z,11.83
2019-03-19T06:01:45.366Z,18.80
2019-03-19T06:05:48.687Z,9.27
2019-03-19T06:09:52.402Z,16.83
2019-03-19T06:13:55.974Z,9.60
2019-03-19T06:17:59.710Z,11.33
2019-03-19T06:22:03.442Z,10.53
2019-03-19T06:26:06.738Z,17.00
2019-03-19T06:30:11.650Z,23.63
2019-03-19T06:34:14.934Z,24.77
2019-03-19T06:38:18.239Z,15.37
2019-03-19T06:42:21.965Z,11.77
2019-03-19T06:46:25.508Z,14.20
2019-03-19T06:50:29.242Z,10.80
2019-03-19T06:54:33.248Z,18.00
2019-03-19T06:58:36.997Z,27.37
2019-03-19T07:02:40.294Z,27.27
2019-03-19T07:06:44.054Z,28.33
2019-03-19T07:10:47.351Z,24.10
2019-03-19T07:14:50.642Z,34.23
2019-03-19T07:18:53.946Z,35.43
2019-03-19T07:22:57.683Z,41.40
2019-03-19T07:27:00.978Z,40.93
2019-03-19T07:31:04.790Z,49.03
2019-03-19T07:35:08.262Z,43.73
2019-03-19T07:39:11.811Z,56.87
2019-03-19T07:43:15.547Z,47.10
2019-03-19T07:47:19.293Z,61.00
2019-03-19T07:51:22.590Z,59.33
2019-03-19T07:55:26.330Z,55.10
2019-03-19T07:59:29.613Z,52.60
2019-03-19T08:03:32.910Z,39.73
2019-03-19T08:07:36.224Z,36.00
2019-03-19T08:11:39.949Z,41.83
2019-03-19T08:15:43.257Z,33.67
2019-03-19T08:19:46.550Z,24.27
2019-03-19T08:23:49.842Z,20.90
2019-03-19T08:27:53.591Z,20.83
2019-03-19T08:31:57.658Z,22.57
2019-03-19T08:36:08.955Z,19.83
2019-03-19T08:40:06.674Z,20.93
2019-03-19T08:44:10.390Z,13.53
2019-03-19T08:48:13.682Z,14.37
2019-03-19T08:52:16.986Z,16.80
2019-03-19T08:56:20.277Z,10.53
2019-03-19T09:00:23.674Z,16.27
2019-03-19T09:04:26.959Z,10.83
2019-03-19T09:08:31.522Z,14.60
2019-03-19T09:12:35.527Z,13.90
2019-03-19T09:16:39.386Z,11.00
2019-03-19T09:20:42.788Z,7.67
2019-03-19T09:24:46.083Z,13.10
2019-03-19T09:28:49.440Z,8.50
2019-03-19T09:32:52.812Z,10.33
2019-03-19T09:36:57.610Z,6.00
2019-03-19T09:41:01.237Z,8.80
2019-03-19T09:45:05.310Z,13.40
2019-03-19T09:49:09.075Z,7.93
2019-03-19T09:53:12.658Z,11.47
2019-03-19T09:57:16.058Z,10.90
2019-03-19T10:01:19.374Z,6.60
2019-03-19T10:05:22.846Z,9.40
2019-03-19T10:09:26.233Z,7.97
2019-03-19T10:13:29.842Z,8.23
2019-03-19T10:17:33.742Z,10.83
2019-03-19T10:21:37.042Z,4.60
2019-03-19T10:25:40.424Z,5.53
2019-03-19T10:29:44.207Z,5.53
2019-03-19T10:33:47.562Z,8.33
2019-03-19T10:37:51.370Z,4.23
2019-03-19T10:41:54.702Z,5.90
2019-03-19T10:45:58.110Z,7.23
2019-03-19T10:50:02.246Z,9.23
2019-03-19T10:54:05.623Z,7.30
2019-03-19T10:58:11.276Z,3.77
2019-03-19T11:02:14.218Z,8.63
2019-03-19T11:06:17.617Z,6.67
2019-03-19T11:10:21.166Z,5.07
2019-03-19T11:14:24.483Z,5.60
2019-03-19T11:18:27.805Z,7.70
2019-03-19T11:22:33.412Z,7.63
2019-03-19T11:26:36.960Z,11.07
2019-03-19T11:30:40.301Z,4.17
2019-03-19T11:34:44.197Z,7.20
2019-03-19T11:38:47.543Z,4.40
2019-03-19T11:42:50.971Z,7.33
2019-03-19T11:46:54.339Z,4.90
2019-03-19T11:50:57.702Z,9.50
2019-03-19T11:55:01.004Z,4.53
2019-03-19T11:59:04.928Z,6.03
2019-03-19T12:03:15.163Z,2.93
2019-03-19T12:07:13.910Z,6.30
2019-03-19T12:11:17.734Z,7.83
2019-03-19T12:15:21.530Z,4.83
2019-03-19T12:19:25.580Z,4.23
2019-03-19T12:23:29.320Z,7.17
2019-03-19T12:27:32.656Z,7.27
2019-03-19T12:31:36.440Z,4.80
2019-03-19T12:35:40.429Z,4.47
2019-03-19T12:39:43.731Z,4.67
2019-03-19T12:43:47.022Z,3.70
2019-03-19T12:47:50.848Z,6.13
2019-03-19T12:51:54.192Z,10.03
2019-03-19T12:55:57.492Z,9.27
2019-03-19T13:00:01.180Z,7.37
2019-03-19T13:04:05.170Z,5.63
2019-03-19T13:08:08.494Z,5.53
2019-03-19T13:12:12.006Z,6.97
2019-03-19T13:16:15.718Z,4.20
2019-03-19T13:20:19.135Z,5.10
2019-03-19T13:24:22.938Z,5.30
2019-03-19T13:28:26.748Z,3.47
2019-03-19T13:32:30.113Z,5.70
2019-03-19T13:36:33.474Z,5.77
2019-03-19T13:40:37.440Z,8.57
2019-03-19T13:44:40.827Z,7.30
2019-03-19T13:48:44.143Z,3.47
2019-03-19T13:52:47.715Z,5.70
2019-03-19T13:56:51.088Z,5.00
2019-03-19T14:00:55.812Z,5.57
2019-03-19T14:04:59.769Z,9.10
2019-03-19T14:09:04.007Z,6.13
2019-03-19T14:13:07.307Z,2.80
2019-03-19T14:17:11.134Z,7.80
2019-03-19T14:21:14.414Z,8.37
2019-03-19T14:25:17.776Z,5.00
2019-03-19T14:29:21.058Z,6.50
2019-03-19T14:33:24.571Z,4.33
2019-03-19T14:37:27.842Z,5.30
2019-03-19T14:41:31.610Z,5.23
2019-03-19T14:45:34.886Z,8.07
2019-03-19T14:49:46.987Z,7.63
2019-03-19T14:53:44.446Z,5.40
2019-03-19T14:57:47.816Z,5.80
2019-03-19T15:01:51.102Z,9.13
2019-03-19T15:05:54.398Z,8.80
2019-03-19T15:09:57.670Z,9.80
2019-03-19T15:14:01.478Z,5.53
2019-03-19T15:18:05.174Z,8.10
2019-03-19T15:22:08.467Z,5.73
2019-03-19T15:26:11.754Z,7.60
2019-03-19T15:30:15.231Z,13.27
2019-03-19T15:34:18.898Z,8.73
2019-03-19T15:38:22.632Z,5.90
2019-03-19T15:42:26.358Z,7.77
2019-03-19T15:46:29.742Z,7.43
2019-03-19T15:50:33.562Z,6.73
2019-03-19T15:54:36.851Z,9.90
2019-03-19T15:58:40.534Z,9.40
2019-03-19T16:02:43.816Z,9.23
2019-03-19T16:06:47.542Z,6.13
2019-03-19T16:10:50.831Z,9.77
2019-03-19T16:14:54.133Z,9.63
2019-03-19T16:18:58.242Z,8.80
2019-03-19T16:23:01.970Z,17.13
2019-03-19T16:27:05.254Z,7.17
2019-03-19T16:31:08.550Z,7.43
2019-03-19T16:35:12.018Z,5.80
2019-03-19T16:39:15.314Z,8.90
2019-03-19T16:43:18.612Z,8.47
2019-03-19T16:47:21.870Z,9.43
2019-03-19T16:51:25.702Z,17.37
2019-03-19T16:55:29.510Z,5.40
2019-03-19T16:59:32.782Z,8.33
2019-03-19T17:03:36.554Z,9.30
2019-03-19T17:07:40.333Z,9.40
2019-03-19T17:11:43.615Z,9.00
2019-03-19T17:15:47.668Z,9.10
2019-03-19T17:19:51.374Z,8.30
2019-03-19T17:23:54.663Z,8.23
2019-03-19T17:27:57.954Z,12.63
2019-03-19T17:32:01.226Z,8.60
2019-03-19T17:36:04.535Z,13.77
2019-03-19T17:40:08.378Z,15.00
2019-03-19T17:44:11.984Z,11.90
2019-03-19T17:48:16.401Z,11.67
2019-03-19T17:52:19.822Z,14.50
2019-03-19T17:56:23.130Z,13.13
2019-03-19T18:00:28.168Z,16.70
2019-03-19T18:04:31.467Z,14.80
2019-03-19T18:08:34.802Z,13.50
2019-03-19T18:12:38.070Z,11.10
2019-03-19T18:16:42.238Z,9.43
2019-03-19T18:20:45.526Z,14.30
2019-03-19T18:24:48.940Z,12.90
2019-03-19T18:28:52.299Z,13.23
2019-03-19T18:32:56.091Z,12.33
2019-03-19T18:36:59.405Z,16.30
2019-03-19T18:41:03.143Z,10.53
2019-03-19T18:45:06.678Z,8.27
2019-03-19T18:49:10.051Z,14.67
2019-03-19T18:53:13.846Z,17.33
2019-03-19T18:57:17.123Z,12.63
2019-03-19T19:01:20.423Z,17.30
2019-03-19T19:05:23.806Z,19.33
2019-03-19T19:09:27.607Z,15.60
2019-03-19T19:13:30.932Z,36.20
2019-03-19T19:17:34.394Z,62.17
2019-03-19T19:21:37.772Z,25.63
2019-03-19T19:25:41.792Z,23.00
2019-03-19T19:29:45.798Z,21.10
2019-03-19T19:33:50.195Z,24.70
2019-03-19T19:37:53.894Z,15.87
2019-03-19T19:41:57.320Z,19.80
2019-03-19T19:46:01.163Z,16.67
2019-03-19T19:50:05.237Z,20.50
2019-03-19T19:54:08.655Z,12.50
2019-03-19T19:58:12.741Z,21.50
2019-03-19T20:02:16.824Z,17.80
2019-03-19T20:06:20.273Z,23.23
2019-03-19T20:10:23.730Z,15.50
2019-03-19T20:14:27.215Z,23.83
2019-03-19T20:18:31.387Z,17.50
2019-03-19T20:22:34.794Z,23.33
2019-03-19T20:26:38.277Z,18.70
2019-03-19T20:30:41.763Z,22.80
2019-03-19T20:34:45.776Z,17.73
2019-03-19T20:38:49.116Z,23.03
2019-03-19T20:42:52.514Z,21.87
2019-03-19T20:46:56.336Z,19.63
2019-03-19T20:50:59.815Z,19.10
2019-03-19T20:55:03.587Z,16.10
2019-03-19T20:59:07.436Z,15.80
2019-03-19T21:03:10.838Z,22.50
2019-03-19T21:07:14.981Z,19.10
2019-03-19T21:11:18.435Z,20.43
2019-03-19T21:15:22.707Z,19.10
2019-03-19T21:19:26.127Z,19.53
2019-03-19T21:23:30.064Z,15.47
2019-03-19T21:27:33.941Z,21.87
2019-03-19T21:31:37.218Z,24.47
2019-03-19T21:35:41.438Z,23.10
2019-03-19T21:39:45.335Z,20.07
2019-03-19T21:43:48.672Z,22.90
2019-03-19T21:47:51.965Z,21.63
2019-03-19T21:51:55.312Z,23.93
2019-03-19T21:55:58.636Z,26.60
2019-03-19T22:00:02.062Z,21.63
2019-03-19T22:04:06.049Z,24.63
2019-03-19T22:08:10.143Z,27.13
2019-03-19T22:12:14.311Z,26.63
2019-03-19T22:16:17.655Z,24.80
2019-03-19T22:20:21.093Z,30.87
2019-03-19T22:24:24.527Z,28.07
2019-03-19T22:28:28.444Z,32.53
2019-03-19T22:32:31.774Z,27.40
2019-03-19T22:36:35.134Z,30.80
2019-03-19T22:40:38.952Z,30.07
2019-03-19T22:44:42.367Z,31.40
2019-03-19T22:48:46.519Z,30.43
2019-03-19T22:52:50.345Z,34.83
2019-03-19T22:56:54.196Z,31.93
2019-03-19T23:00:57.746Z,34.27
2019-03-19T23:05:01.283Z,28.33
2019-03-19T23:09:07.003Z,28.53
2019-03-19T23:13:11.889Z,29.63
2019-03-19T23:17:15.444Z,32.87
2019-03-19T23:21:18.846Z,27.97
2019-03-19T23:25:22.291Z,28.87
2019-03-19T23:29:25.828Z,35.43
2019-03-19T23:33:29.630Z,31.43
2019-03-19T23:37:33.010Z,29.30
2019-03-19T23:41:36.397Z,31.30
2019-03-19T23:45:39.766Z,32.23
2019-03-19T23:49:43.192Z,35.57
2019-03-19T23:53:46.617Z,36.00
2019-03-19T23:57:50.478Z,34.60
